createdAt,value
2023-01-25T00:01:59.699Z,103478.00
2023-01-25T00:04:26.417Z,103469.53
2023-01-25T00:06:52.811Z,103461.59
2023-01-25T00:09:20.128Z,103455.41
2023-01-25T00:11:47.037Z,103450.34
2023-01-25T00:14:14.781Z,103441.06
2023-01-25T00:16:41.926Z,103437.59
2023-01-25T00:19:09.524Z,103432.59
2023-01-25T00:21:36.951Z,103432.63
2023-01-25T00:24:03.839Z,103436.28
2023-01-25T00:26:30.877Z,103434.75
2023-01-25T00:28:57.431Z,103433.19
2023-01-25T00:31:50.332Z,103424.03
2023-01-25T00:34:25.817Z,103414.13
2023-01-25T00:36:57.049Z,103406.53
2023-01-25T00:39:25.940Z,103401.47
2023-01-25T00:41:52.363Z,103391.13
2023-01-25T00:44:18.821Z,103384.03
2023-01-25T00:46:45.400Z,103371.75
2023-01-25T00:49:24.298Z,103370.03
2023-01-25T00:51:52.155Z,103359.84
2023-01-25T00:54:20.111Z,103358.28
2023-01-25T00:56:46.790Z,103360.03
2023-01-25T00:59:15.611Z,103349.66
2023-01-25T01:01:42.245Z,103344.50
2023-01-25T01:04:08.904Z,103353.97
2023-01-25T01:06:36.705Z,103345.53
2023-01-25T01:09:04.082Z,103351.75
2023-01-25T01:11:31.712Z,103356.91
2023-01-25T01:13:59.113Z,103357.31
2023-01-25T01:16:26.734Z,103365.59
2023-01-25T01:18:53.536Z,103366.13
2023-01-25T01:21:20.798Z,103364.53
2023-01-25T01:23:47.248Z,103363.69
2023-01-25T01:26:16.227Z,103365.25
2023-01-25T01:28:43.018Z,103356.78
2023-01-25T01:31:16.302Z,103356.63
2023-01-25T01:33:53.027Z,103355.59
2023-01-25T01:36:22.179Z,103365.75
2023-01-25T01:38:48.879Z,103363.47
2023-01-25T01:41:16.507Z,103355.19
2023-01-25T01:43:43.020Z,103354.84
2023-01-25T01:46:37.276Z,103345.53
2023-01-25T01:49:13.145Z,103344.00
2023-01-25T01:51:48.341Z,103342.25
2023-01-25T01:54:32.712Z,103344.19
2023-01-25T01:57:10.464Z,103347.44
2023-01-25T01:59:44.383Z,103346.06
2023-01-25T02:02:12.114Z,103342.44
2023-01-25T02:04:38.632Z,103341.88
2023-01-25T02:07:34.699Z,103339.47
2023-01-25T02:10:03.497Z,103338.97
2023-01-25T02:12:30.217Z,103340.00
2023-01-25T02:14:56.619Z,103332.44
2023-01-25T02:17:28.016Z,103339.50
2023-01-25T02:20:03.773Z,103335.50
2023-01-25T02:23:01.267Z,103334.50
2023-01-25T02:25:28.977Z,103337.25
2023-01-25T02:28:04.284Z,103329.81
2023-01-25T02:30:31.074Z,103332.41
2023-01-25T02:32:57.500Z,103326.53
2023-01-25T02:35:36.977Z,103328.44
2023-01-25T02:38:05.267Z,103319.47
2023-01-25T02:40:36.426Z,103326.41
2023-01-25T02:43:02.753Z,103318.81
2023-01-25T02:45:30.301Z,103314.19
2023-01-25T02:47:56.749Z,103308.41
2023-01-25T02:50:23.188Z,103307.94
2023-01-25T02:52:49.611Z,103313.44
2023-01-25T02:55:16.247Z,103318.44
2023-01-25T02:57:44.199Z,103318.47
2023-01-25T03:00:11.120Z,103312.13
2023-01-25T03:02:37.607Z,103312.28
2023-01-25T03:05:04.266Z,103306.91
2023-01-25T03:07:30.749Z,103308.63
2023-01-25T03:09:58.038Z,103308.28
2023-01-25T03:12:24.725Z,103307.94
2023-01-25T03:14:52.768Z,103304.47
2023-01-25T03:17:20.007Z,103298.75
2023-01-25T03:19:46.511Z,103298.41
2023-01-25T03:22:12.974Z,103293.94
2023-01-25T03:24:40.218Z,103290.66
2023-01-25T03:27:18.396Z,103285.00
2023-01-25T03:29:51.595Z,103282.03
2023-01-25T03:32:23.297Z,103282.03
2023-01-25T03:34:49.911Z,103278.25
2023-01-25T03:37:18.247Z,103277.72
2023-01-25T03:39:44.731Z,103281.69
2023-01-25T03:42:11.703Z,103278.69
2023-01-25T03:44:38.476Z,103284.22
2023-01-25T03:47:05.036Z,103273.03
2023-01-25T03:49:31.521Z,103266.34
2023-01-25T03:51:58.627Z,103267.88
2023-01-25T03:54:35.970Z,103266.50
2023-01-25T03:57:02.533Z,103268.88
2023-01-25T03:59:31.611Z,103264.22
2023-01-25T04:01:58.842Z,103258.19
2023-01-25T04:04:25.653Z,103252.84
2023-01-25T04:06:52.920Z,103255.44
2023-01-25T04:09:20.651Z,103247.34
2023-01-25T04:11:51.561Z,103244.56
2023-01-25T04:14:25.505Z,103240.59
2023-01-25T04:17:05.324Z,103232.47
2023-01-25T04:19:41.515Z,103233.31
2023-01-25T04:22:12.910Z,103227.44
2023-01-25T04:24:39.718Z,103219.84
2023-01-25T04:27:06.528Z,103214.16
2023-01-25T04:29:41.468Z,103212.25
2023-01-25T04:32:11.998Z,103218.44
2023-01-25T04:34:38.501Z,103212.94
2023-01-25T04:37:07.650Z,103215.38
2023-01-25T04:39:42.505Z,103219.00
2023-01-25T04:42:09.078Z,103206.38
2023-01-25T04:44:35.564Z,103205.69
2023-01-25T04:47:03.746Z,103196.88
2023-01-25T04:49:30.329Z,103196.69
2023-01-25T04:51:56.887Z,103194.28
2023-01-25T04:54:23.876Z,103198.44
2023-01-25T04:56:50.354Z,103189.81
2023-01-25T04:59:17.227Z,103183.41
2023-01-25T05:01:43.808Z,103179.94
2023-01-25T05:04:10.265Z,103186.34
2023-01-25T05:06:43.429Z,103185.84
2023-01-25T05:09:10.265Z,103179.25
2023-01-25T05:11:36.792Z,103185.13
2023-01-25T05:14:09.924Z,103174.78
2023-01-25T05:16:36.483Z,103176.47
2023-01-25T05:19:03.617Z,103167.69
2023-01-25T05:21:55.690Z,103170.44
2023-01-25T05:24:22.447Z,103159.41
2023-01-25T05:27:01.610Z,103161.47
2023-01-25T05:29:43.514Z,103163.00
2023-01-25T05:32:11.708Z,103163.53
2023-01-25T05:34:38.990Z,103160.25
2023-01-25T05:37:07.624Z,103164.56
2023-01-25T05:39:36.773Z,103162.16
2023-01-25T05:42:03.822Z,103170.09
2023-01-25T05:44:30.421Z,103161.44
2023-01-25T05:46:56.978Z,103159.53
2023-01-25T05:49:23.430Z,103165.94
2023-01-25T05:51:49.847Z,103158.00
2023-01-25T05:54:17.747Z,103159.19
2023-01-25T05:56:50.750Z,103158.69
2023-01-25T05:59:18.115Z,103148.66
2023-01-25T06:01:44.854Z,103144.00
2023-01-25T06:04:15.705Z,103137.63
2023-01-25T06:06:42.176Z,103137.63
2023-01-25T06:09:11.914Z,103144.84
2023-01-25T06:11:38.493Z,103150.03
2023-01-25T06:14:05.027Z,103151.44
2023-01-25T06:16:31.604Z,103152.81
2023-01-25T06:19:06.554Z,103146.59
2023-01-25T06:21:45.188Z,103147.78
2023-01-25T06:24:11.690Z,103149.03
2023-01-25T06:26:38.874Z,103149.19
2023-01-25T06:29:30.937Z,103148.84
2023-01-25T06:31:57.515Z,103146.06
2023-01-25T06:34:24.772Z,103149.69
2023-01-25T06:36:52.313Z,103151.25
2023-01-25T06:39:18.701Z,103147.97
2023-01-25T06:41:45.113Z,103137.63
2023-01-25T06:44:11.589Z,103139.50
2023-01-25T06:46:38.050Z,103137.06
2023-01-25T06:49:05.580Z,103131.88
2023-01-25T06:51:32.034Z,103137.25
2023-01-25T06:54:50.834Z,103134.16
2023-01-25T06:57:17.247Z,103128.63
2023-01-25T06:59:43.652Z,103120.47
2023-01-25T07:02:15.574Z,103115.50
2023-01-25T07:04:42.263Z,103109.97
2023-01-25T07:07:09.485Z,103115.47
2023-01-25T07:09:36.343Z,103105.28
2023-01-25T07:12:04.702Z,103104.41
2023-01-25T07:14:31.614Z,103106.31
2023-01-25T07:16:58.361Z,103105.47
2023-01-25T07:19:24.761Z,103103.41
2023-01-25T07:21:51.352Z,103101.16
2023-01-25T07:24:20.136Z,103102.72
2023-01-25T07:26:49.167Z,103097.19
2023-01-25T07:29:16.281Z,103095.31
2023-01-25T07:31:42.832Z,103088.75
2023-01-25T07:34:13.021Z,103089.25
2023-01-25T07:36:40.952Z,103092.34
2023-01-25T07:39:10.317Z,103091.00
2023-01-25T07:41:36.713Z,103088.53
2023-01-25T07:44:03.463Z,103089.44
2023-01-25T07:46:39.827Z,103093.56
2023-01-25T07:49:06.865Z,103075.59
2023-01-25T07:51:33.305Z,103077.47
2023-01-25T07:53:59.629Z,103078.03
2023-01-25T07:56:31.669Z,103074.22
2023-01-25T07:58:59.530Z,103072.66
2023-01-25T08:01:27.678Z,103068.34
2023-01-25T08:03:56.125Z,103068.38
2023-01-25T08:06:30.744Z,103067.00
2023-01-25T08:08:59.210Z,103064.03
2023-01-25T08:11:28.492Z,103061.97
2023-01-25T08:13:55.563Z,103067.88
2023-01-25T08:16:25.014Z,103063.72
2023-01-25T08:18:57.602Z,103055.75
2023-01-25T08:21:28.964Z,103053.69
2023-01-25T08:23:57.550Z,103059.41
2023-01-25T08:26:24.030Z,103048.50
2023-01-25T08:28:52.931Z,103050.94
2023-01-25T08:31:25.309Z,103051.63
2023-01-25T08:33:52.548Z,103055.75
2023-01-25T08:36:20.092Z,103058.03
2023-01-25T08:38:47.500Z,103056.31
2023-01-25T08:41:19.601Z,103050.94
2023-01-25T08:43:47.038Z,103044.56
2023-01-25T08:46:17.886Z,103046.81
2023-01-25T08:48:44.485Z,103043.84
2023-01-25T08:51:16.116Z,103034.91
2023-01-25T08:53:42.917Z,103042.28
2023-01-25T08:56:12.130Z,103038.69
2023-01-25T08:58:41.324Z,103041.78
2023-01-25T09:01:10.199Z,103037.09
2023-01-25T09:03:38.618Z,103033.84
2023-01-25T09:06:05.518Z,103039.53
2023-01-25T09:08:32.891Z,103036.59
2023-01-25T09:11:07.836Z,103031.44
2023-01-25T09:13:34.372Z,103040.59
2023-01-25T09:16:06.507Z,103035.19
2023-01-25T09:18:35.357Z,103032.78
2023-01-25T09:21:18.249Z,103034.19
2023-01-25T09:24:05.725Z,103036.75
2023-01-25T09:26:34.263Z,103038.88
2023-01-25T09:29:00.691Z,103035.41
2023-01-25T09:31:30.123Z,103023.31
2023-01-25T09:34:14.379Z,103027.81
2023-01-25T09:36:40.981Z,103023.66
2023-01-25T09:39:07.741Z,103027.13
2023-01-25T09:42:00.724Z,103022.13
2023-01-25T09:44:47.889Z,103021.25
2023-01-25T09:47:34.015Z,103006.25
2023-01-25T09:50:33.011Z,103005.88
2023-01-25T09:53:18.129Z,103007.09
2023-01-25T09:55:44.656Z,103000.50
2023-01-25T09:58:19.710Z,102998.44
2023-01-25T10:00:48.124Z,103001.56
2023-01-25T10:03:22.524Z,102997.75
2023-01-25T10:05:51.772Z,102992.59
2023-01-25T10:08:49.158Z,102997.81
2023-01-25T10:11:28.008Z,102992.09
2023-01-25T10:13:58.750Z,102983.63
2023-01-25T10:16:46.319Z,102980.69
2023-01-25T10:19:22.719Z,102982.22
2023-01-25T10:22:08.482Z,102982.59
2023-01-25T10:24:53.594Z,102982.75
2023-01-25T10:27:31.955Z,102973.97
2023-01-25T10:30:02.549Z,102973.09
2023-01-25T10:32:35.920Z,102964.28
2023-01-25T10:35:29.224Z,102955.44
2023-01-25T10:38:05.704Z,102951.09
2023-01-25T10:40:41.832Z,102947.34
2023-01-25T10:43:16.848Z,102939.09
2023-01-25T10:45:44.528Z,102934.94
2023-01-25T10:48:17.575Z,102930.81
2023-01-25T10:50:47.028Z,102931.66
2023-01-25T10:53:31.818Z,102921.09
2023-01-25T10:56:08.674Z,102925.63
2023-01-25T10:58:40.357Z,102928.56
2023-01-25T11:01:13.451Z,102918.72
2023-01-25T11:03:44.649Z,102914.59
2023-01-25T11:06:11.206Z,102910.91
2023-01-25T11:08:42.022Z,102905.09
2023-01-25T11:11:25.373Z,102906.88
2023-01-25T11:13:54.907Z,102897.19
2023-01-25T11:16:33.411Z,102894.44
2023-01-25T11:19:02.649Z,102892.69
2023-01-25T11:21:31.590Z,102891.47
2023-01-25T11:24:17.389Z,102889.53
2023-01-25T11:26:44.746Z,102884.19
2023-01-25T11:29:18.444Z,102872.25
2023-01-25T11:31:51.441Z,102869.81
2023-01-25T11:34:26.219Z,102864.16
2023-01-25T11:37:25.645Z,102859.97
2023-01-25T11:40:19.623Z,102853.50
2023-01-25T11:43:07.793Z,102851.72
2023-01-25T11:46:09.473Z,102835.47
2023-01-25T11:48:57.623Z,102826.22
2023-01-25T11:51:41.179Z,102825.84
2023-01-25T11:54:25.985Z,102818.94
2023-01-25T11:57:10.821Z,102815.72
2023-01-25T11:59:57.515Z,102810.19
2023-01-25T12:02:49.764Z,102799.13
2023-01-25T12:05:41.630Z,102799.78
2023-01-25T12:08:19.351Z,102788.25
2023-01-25T12:11:07.643Z,102787.28
2023-01-25T12:13:58.520Z,102780.69
2023-01-25T12:16:56.279Z,102772.19
2023-01-25T12:19:56.101Z,102760.59
2023-01-25T12:22:53.703Z,102743.53
2023-01-25T12:25:38.682Z,102745.09
2023-01-25T12:28:19.634Z,102735.72
2023-01-25T12:31:10.088Z,102737.19
2023-01-25T12:33:45.514Z,102734.53
2023-01-25T12:36:22.872Z,102721.53
2023-01-25T12:38:57.231Z,102726.69
2023-01-25T12:41:33.244Z,102725.19
2023-01-25T12:44:19.469Z,102716.84
2023-01-25T12:46:59.437Z,102712.34
2023-01-25T12:49:33.618Z,102700.09
2023-01-25T12:52:06.968Z,102701.59
2023-01-25T12:54:41.693Z,102704.09
2023-01-25T12:57:25.448Z,102696.13
2023-01-25T13:00:11.226Z,102700.56
2023-01-25T13:03:15.948Z,102694.88
2023-01-25T13:06:12.163Z,102688.56
2023-01-25T13:08:54.948Z,102684.63
2023-01-25T13:11:35.392Z,102696.97
2023-01-25T13:14:16.954Z,102688.22
2023-01-25T13:16:50.199Z,102678.88
2023-01-25T13:19:44.243Z,102688.56
2023-01-25T13:22:12.414Z,102676.22
2023-01-25T13:25:17.206Z,102674.31
2023-01-25T13:27:43.600Z,102668.53
2023-01-25T13:30:15.918Z,102670.88
2023-01-25T13:32:44.990Z,102664.75
2023-01-25T13:35:30.363Z,102663.41
2023-01-25T13:37:59.210Z,102663.84
2023-01-25T13:40:32.747Z,102658.84
2023-01-25T13:43:01.793Z,102652.81
2023-01-25T13:45:29.070Z,102649.34
2023-01-25T13:48:04.026Z,102627.31
2023-01-25T13:50:34.458Z,102629.50
2023-01-25T13:53:06.901Z,102627.91
2023-01-25T13:55:42.197Z,102625.34
2023-01-25T13:58:22.312Z,102617.75
2023-01-25T14:00:51.562Z,102636.00
2023-01-25T14:03:19.516Z,102631.94
2023-01-25T14:05:51.099Z,102616.38
2023-01-25T14:08:19.540Z,102620.47
2023-01-25T14:10:46.868Z,102619.25
2023-01-25T14:13:17.291Z,102619.72
2023-01-25T14:15:58.627Z,102617.00
2023-01-25T14:18:38.368Z,102615.31
2023-01-25T14:21:15.599Z,102616.78
2023-01-25T14:23:42.029Z,102605.84
2023-01-25T14:26:19.097Z,102601.66
2023-01-25T14:28:59.069Z,102602.91
2023-01-25T14:31:35.747Z,102600.28
2023-01-25T14:34:04.649Z,102605.97
2023-01-25T14:36:34.273Z,102603.16
2023-01-25T14:39:02.071Z,102595.94
2023-01-25T14:41:33.719Z,102588.97
2023-01-25T14:44:06.387Z,102584.56
2023-01-25T14:46:34.785Z,102576.09
2023-01-25T14:49:26.818Z,102569.50
2023-01-25T14:52:02.738Z,102567.44
2023-01-25T14:54:31.717Z,102564.19
2023-01-25T14:57:01.884Z,102563.66
2023-01-25T14:59:36.807Z,102549.31
2023-01-25T15:02:17.913Z,102564.13
2023-01-25T15:05:14.693Z,102555.00
2023-01-25T15:07:45.930Z,102553.94
2023-01-25T15:10:20.325Z,102543.66
2023-01-25T15:13:21.811Z,102536.44
2023-01-25T15:15:59.885Z,102539.50
2023-01-25T15:18:51.000Z,102536.00
2023-01-25T15:21:20.145Z,102536.53
2023-01-25T15:23:49.111Z,102532.16
2023-01-25T15:26:34.965Z,102524.31
2023-01-25T15:29:05.555Z,102528.38
2023-01-25T15:31:34.532Z,102529.28
2023-01-25T15:34:01.749Z,102525.81
2023-01-25T15:36:29.856Z,102523.00
2023-01-25T15:38:56.260Z,102518.50
2023-01-25T15:41:22.842Z,102526.97
2023-01-25T15:43:49.915Z,102516.09
2023-01-25T15:46:27.806Z,102518.28
2023-01-25T15:48:55.073Z,102504.72
2023-01-25T15:51:21.540Z,102511.16
2023-01-25T15:53:47.991Z,102511.75
2023-01-25T15:56:20.285Z,102511.63
2023-01-25T15:58:55.472Z,102510.38
2023-01-25T16:01:27.216Z,102508.31
2023-01-25T16:03:58.258Z,102504.00
2023-01-25T16:06:42.802Z,102498.34
2023-01-25T16:09:24.162Z,102494.56
2023-01-25T16:11:56.142Z,102490.00
2023-01-25T16:14:28.808Z,102482.59
2023-01-25T16:16:57.389Z,102482.44
2023-01-25T16:19:24.315Z,102470.94
2023-01-25T16:21:51.174Z,102475.19
2023-01-25T16:24:18.522Z,102473.41
2023-01-25T16:26:56.349Z,102467.22
2023-01-25T16:29:23.253Z,102467.34
2023-01-25T16:31:50.620Z,102468.16
2023-01-25T16:34:26.551Z,102459.56
2023-01-25T16:36:53.171Z,102456.75
2023-01-25T16:39:25.250Z,102456.44
2023-01-25T16:41:51.682Z,102452.56
2023-01-25T16:44:18.290Z,102441.97
2023-01-25T16:46:44.989Z,102440.31
2023-01-25T16:49:16.329Z,102441.28
2023-01-25T16:51:42.846Z,102435.88
2023-01-25T16:54:11.727Z,102436.19
2023-01-25T16:56:38.350Z,102430.84
2023-01-25T16:59:06.228Z,102428.75
2023-01-25T17:01:33.081Z,102421.50
2023-01-25T17:03:59.605Z,102420.88
2023-01-25T17:06:32.552Z,102422.63
2023-01-25T17:09:09.308Z,102422.16
2023-01-25T17:11:39.879Z,102415.31
2023-01-25T17:14:06.951Z,102416.50
2023-01-25T17:16:33.785Z,102413.34
2023-01-25T17:19:04.498Z,102420.88
2023-01-25T17:21:31.673Z,102414.69
2023-01-25T17:23:59.578Z,102399.78
2023-01-25T17:26:28.053Z,102400.59
2023-01-25T17:28:59.041Z,102392.19
2023-01-25T17:31:28.785Z,102394.56
2023-01-25T17:33:56.001Z,102393.31
2023-01-25T17:36:22.785Z,102397.72
2023-01-25T17:38:49.515Z,102393.25
2023-01-25T17:41:16.999Z,102393.91
2023-01-25T17:43:43.756Z,102385.03
2023-01-25T17:46:29.846Z,102383.44
2023-01-25T17:48:57.241Z,102374.75
2023-01-25T17:51:25.073Z,102369.16
2023-01-25T17:53:52.607Z,102369.16
2023-01-25T17:56:19.213Z,102373.63
2023-01-25T17:58:46.247Z,102366.47
2023-01-25T18:01:14.497Z,102371.03
2023-01-25T18:03:42.451Z,102372.22
2023-01-25T18:06:09.554Z,102359.00
2023-01-25T18:08:40.873Z,102357.09
2023-01-25T18:11:12.273Z,102352.03
2023-01-25T18:13:40.152Z,102355.41
2023-01-25T18:16:08.304Z,102353.50
2023-01-25T18:18:34.922Z,102351.13
2023-01-25T18:21:05.686Z,102345.88
2023-01-25T18:23:32.121Z,102342.94
2023-01-25T18:25:58.645Z,102339.28
2023-01-25T18:28:26.906Z,102343.19
2023-01-25T18:30:58.988Z,102346.91
2023-01-25T18:33:25.892Z,102348.13
2023-01-25T18:35:53.887Z,102349.28
2023-01-25T18:38:20.535Z,102347.41
2023-01-25T18:40:47.265Z,102346.72
2023-01-25T18:43:13.793Z,102341.69
2023-01-25T18:45:40.224Z,102338.81
2023-01-25T18:48:06.739Z,102337.03
2023-01-25T18:50:33.557Z,102337.78
2023-01-25T18:52:59.993Z,102335.09
2023-01-25T18:55:27.640Z,102331.56
2023-01-25T18:57:54.062Z,102324.44
2023-01-25T19:00:20.468Z,102327.94
2023-01-25T19:02:46.920Z,102318.97
2023-01-25T19:05:14.271Z,102308.25
2023-01-25T19:07:40.714Z,102297.44
2023-01-25T19:10:07.433Z,102306.03
2023-01-25T19:12:33.948Z,102299.53
2023-01-25T19:15:00.375Z,102300.16
2023-01-25T19:17:26.819Z,102302.06
2023-01-25T19:19:53.219Z,102290.72
2023-01-25T19:22:19.705Z,102290.94
2023-01-25T19:24:46.084Z,102281.69
2023-01-25T19:27:12.504Z,102288.66
2023-01-25T19:29:39.019Z,102288.41
2023-01-25T19:32:05.545Z,102285.44
2023-01-25T19:34:31.948Z,102279.81
2023-01-25T19:36:58.418Z,102270.50
2023-01-25T19:39:24.930Z,102269.94
2023-01-25T19:41:53.222Z,102257.09
2023-01-25T19:44:20.636Z,102252.16
2023-01-25T19:46:47.220Z,102252.16
2023-01-25T19:49:14.426Z,102242.16
2023-01-25T19:51:45.364Z,102236.56
2023-01-25T19:54:16.590Z,102235.88
2023-01-25T19:56:45.591Z,102229.91
2023-01-25T19:59:14.852Z,102230.00
2023-01-25T20:01:43.872Z,102221.69
2023-01-25T20:04:16.249Z,102221.50
2023-01-25T20:06:43.046Z,102214.50
2023-01-25T20:09:13.879Z,102215.59
2023-01-25T20:11:40.889Z,102217.88
2023-01-25T20:14:08.301Z,102224.13
2023-01-25T20:16:35.416Z,102216.75
2023-01-25T20:19:02.593Z,102217.03
2023-01-25T20:21:31.106Z,102216.22
2023-01-25T20:24:00.475Z,102215.13
2023-01-25T20:26:30.288Z,102204.63
2023-01-25T20:28:58.732Z,102202.56
2023-01-25T20:31:34.623Z,102204.78
2023-01-25T20:34:07.292Z,102204.97
2023-01-25T20:36:34.839Z,102203.34
2023-01-25T20:39:01.885Z,102196.31
2023-01-25T20:41:28.448Z,102199.34
2023-01-25T20:43:57.294Z,102197.19
2023-01-25T20:46:24.944Z,102200.88
2023-01-25T20:48:53.421Z,102200.19
2023-01-25T20:51:21.507Z,102191.75
2023-01-25T20:53:49.887Z,102193.47
2023-01-25T20:56:18.046Z,102200.13
2023-01-25T20:58:51.096Z,102203.25
2023-01-25T21:01:21.211Z,102200.41
2023-01-25T21:03:48.320Z,102188.63
2023-01-25T21:06:15.455Z,102194.44
2023-01-25T21:08:42.032Z,102200.31
2023-01-25T21:11:09.196Z,102201.66
2023-01-25T21:13:35.997Z,102193.56
2023-01-25T21:16:23.985Z,102197.66
2023-01-25T21:18:55.974Z,102188.25
2023-01-25T21:21:25.835Z,102189.00
2023-01-25T21:23:52.355Z,102188.53
2023-01-25T21:26:24.120Z,102183.41
2023-01-25T21:28:51.567Z,102178.34
2023-01-25T21:31:20.776Z,102174.25
2023-01-25T21:33:48.037Z,102160.13
2023-01-25T21:36:16.621Z,102160.97
2023-01-25T21:38:44.890Z,102161.59
2023-01-25T21:41:13.777Z,102157.81
2023-01-25T21:43:58.638Z,102156.75
2023-01-25T21:46:26.926Z,102141.63
2023-01-25T21:49:17.593Z,102144.78
2023-01-25T21:51:52.039Z,102144.38
2023-01-25T21:54:26.598Z,102149.13
2023-01-25T21:56:55.420Z,102151.97
2023-01-25T21:59:22.652Z,102144.84
2023-01-25T22:01:50.268Z,102146.22
2023-01-25T22:04:17.967Z,102148.50
2023-01-25T22:06:44.794Z,102144.97
2023-01-25T22:09:13.127Z,102146.03
2023-01-25T22:11:39.663Z,102142.00
2023-01-25T22:14:06.140Z,102143.16
2023-01-25T22:16:32.834Z,102139.56
2023-01-25T22:19:00.089Z,102132.91
2023-01-25T22:21:31.911Z,102131.56
2023-01-25T22:24:00.452Z,102128.06
2023-01-25T22:26:50.232Z,102126.94
2023-01-25T22:29:16.665Z,102122.72
2023-01-25T22:31:43.824Z,102124.09
2023-01-25T22:34:10.553Z,102119.22
2023-01-25T22:36:38.083Z,102125.13
2023-01-25T22:39:04.476Z,102120.47
2023-01-25T22:41:32.877Z,102117.50
2023-01-25T22:43:59.293Z,102119.13
2023-01-25T22:46:28.133Z,102115.03
2023-01-25T22:48:55.141Z,102108.75
2023-01-25T22:51:25.590Z,102105.78
2023-01-25T22:53:52.604Z,102105.81
2023-01-25T22:56:22.657Z,102108.66
2023-01-25T22:58:49.868Z,102098.31
2023-01-25T23:01:19.017Z,102102.22
2023-01-25T23:03:45.911Z,102096.59
2023-01-25T23:06:18.029Z,102088.22
2023-01-25T23:08:44.506Z,102085.91
2023-01-25T23:11:13.889Z,102085.75
2023-01-25T23:13:40.796Z,102091.66
2023-01-25T23:16:09.680Z,102086.91
2023-01-25T23:18:51.775Z,102078.25
2023-01-25T23:21:21.674Z,102075.28
2023-01-25T23:23:48.340Z,102079.19
2023-01-25T23:26:15.870Z,102070.66
2023-01-25T23:28:43.001Z,102059.03
2023-01-25T23:31:17.604Z,102067.28
2023-01-25T23:33:46.115Z,102062.44
2023-01-25T23:36:18.545Z,102070.53
2023-01-25T23:38:46.208Z,102066.91
2023-01-25T23:41:13.889Z,102064.53
2023-01-25T23:43:40.902Z,102059.63
2023-01-25T23:46:07.780Z,102053.50
2023-01-25T23:48:34.229Z,102060.84
2023-01-25T23:51:00.687Z,102052.94
2023-01-25T23:53:27.744Z,102054.75
2023-01-25T23:55:58.745Z,102053.31
2023-01-25T23:58:25.730Z,102054.09
